Time;durP1;ratioP1;P1;durP2;ratioP2;P2;SDS_P1;SDS_P2;PMS_P1;PMS_P2;Temp;Humidity;BMP_temperature;BMP_pressure;BME280_temperature;BME280_humidity;BME280_pressure;Samples;Min_cycle;Max_cycle;Signal;HPM_P1;HPM_P2
2023/04/14 00:01:16;;;;;;;12.03;2.10;;;7.50;99.90;;;;;;5072077;28;20487;-54
2023/04/14 00:03:42;;;;;;;8.60;2.20;;;7.50;83.50;;;;;;5071862;28;20387;-54
2023/04/14 00:06:08;;;;;;;7.60;2.55;;;7.40;99.90;;;;;;5071995;28;20418;-54
2023/04/14 00:08:33;;;;;;;6.77;1.80;;;7.40;99.90;;;;;;5071013;28;20726;-54
2023/04/14 00:10:59;;;;;;;6.90;2.20;;;7.30;95.80;;;;;;5071818;28;20380;-54
2023/04/14 00:13:25;;;;;;;6.90;1.80;;;7.30;99.90;;;;;;5071098;28;20411;-54
2023/04/14 00:15:50;;;;;;;6.90;1.70;;;7.30;99.90;;;;;;5071655;28;20756;-54
2023/04/14 00:18:16;;;;;;;7.22;2.00;;;8.70;99.90;;;;;;5071111;28;20433;-54
2023/04/14 00:20:43;;;;;;;6.57;2.00;;;7.40;1.00;;;;;;5071696;28;20418;-54
2023/04/14 00:23:09;;;;;;;8.48;2.10;;;8.40;1.00;;;;;;5070883;28;20419;-55
2023/04/14 00:25:34;;;;;;;7.13;2.15;;;8.10;1.00;;;;;;5053546;28;20423;-54
2023/04/14 00:28:00;;;;;;;7.60;1.80;;;7.40;1.00;;;;;;5071124;28;20426;-54
2023/04/14 00:30:26;;;;;;;7.13;2.13;;;7.40;1.00;;;;;;5070697;28;20387;-54
2023/04/14 00:32:51;;;;;;;6.70;1.92;;;8.60;1.00;;;;;;5071829;28;20399;-54
2023/04/14 00:35:17;;;;;;;6.17;1.70;;;9.10;1.00;;;;;;5070743;28;20482;-54
2023/04/14 00:37:42;;;;;;;6.20;1.70;;;9.20;99.90;;;;;;5071947;28;20368;-54
2023/04/14 00:40:09;;;;;;;5.87;1.50;;;7.40;1.00;;;;;;5071251;28;20805;-54
2023/04/14 00:42:45;;;;;;;6.60;1.58;;;7.30;1.00;;;;;;5071064;28;20423;-54
2023/04/14 00:45:12;;;;;;;6.03;1.33;;;7.60;99.90;;;;;;5070692;28;20380;-55
2023/04/14 00:47:40;;;;;;;7.97;1.60;;;7.20;1.00;;;;;;5071107;28;20741;-54
2023/04/14 00:50:10;;;;;;;7.97;1.50;;;8.90;22.80;;;;;;5071303;28;20383;-54
2023/04/14 00:52:37;;;;;;;9.27;1.90;;;7.10;99.90;;;;;;5071031;28;20411;-54
2023/04/14 00:55:04;;;;;;;6.13;1.75;;;7.20;99.90;;;;;;5070953;28;20454;-54
2023/04/14 00:57:30;;;;;;;8.50;1.70;;;7.10;99.90;;;;;;5070862;28;20589;-54
2023/04/14 00:59:57;;;;;;;8.80;2.00;;;7.10;1.00;;;;;;5070651;28;20753;-54
2023/04/14 01:02:24;;;;;;;6.25;1.83;;;7.90;99.90;;;;;;5069882;28;20384;-54
2023/04/14 01:04:50;;;;;;;6.22;1.80;;;7.10;1.00;;;;;;5070497;28;20784;-54
2023/04/14 01:07:21;;;;;;;10.17;2.20;;;8.60;86.60;;;;;;5069719;28;20380;-54
2023/04/14 01:09:46;;;;;;;7.15;2.30;;;6.90;99.90;;;;;;5070950;28;20403;-54
2023/04/14 01:12:30;;;;;;;7.47;2.03;;;7.10;1.00;;;;;;5069728;28;20871;-54
2023/04/14 01:15:20;;;;;;;7.00;2.10;;;7.00;99.90;;;;;;5070908;28;20387;-54
2023/04/14 01:18:09;;;;;;;8.37;2.10;;;6.90;99.90;;;;;;5070515;28;20410;-54
2023/04/14 01:20:43;;;;;;;8.05;1.98;;;6.90;99.90;;;;;;5070544;28;20511;-54
2023/04/14 01:23:19;;;;;;;8.30;1.73;;;6.90;1.00;;;;;;5070482;28;20471;-54
2023/04/14 01:25:56;;;;;;;6.13;2.00;;;7.70;1.00;;;;;;5070950;28;20458;-54
2023/04/14 01:28:40;;;;;;;7.82;2.38;;;7.20;99.90;;;;;;5069710;28;20504;-54
2023/04/14 01:31:46;;;;;;;7.70;2.25;;;6.90;1.00;;;;;;5070011;28;20410;-54
2023/04/14 01:34:28;;;;;;;6.28;1.70;;;6.70;1.00;;;;;;5046459;28;20415;-54
2023/04/14 01:36:57;;;;;;;6.35;1.70;;;6.60;1.00;;;;;;5069918;28;20382;-54
2023/04/14 01:39:29;;;;;;;8.43;2.05;;;6.50;78.20;;;;;;5069525;28;20746;-54
2023/04/14 01:41:57;;;;;;;8.73;2.13;;;6.40;1.00;;;;;;5070115;28;20427;-54
2023/04/14 01:44:24;;;;;;;8.20;1.90;;;6.60;99.90;;;;;;5069510;28;20482;-54
2023/04/14 01:46:55;;;;;;;5.50;1.80;;;6.40;99.90;;;;;;5070078;28;20386;-54
2023/04/14 01:49:22;;;;;;;6.30;1.63;;;6.40;99.90;;;;;;5068993;28;20463;-54
2023/04/14 01:51:49;;;;;;;5.87;2.10;;;6.30;99.90;;;;;;5069923;28;20387;-54
2023/04/14 01:54:17;;;;;;;8.00;2.30;;;6.30;99.90;;;;;;5069033;28;20424;-54
2023/04/14 01:56:43;;;;;;;7.20;1.80;;;6.30;1.00;;;;;;5069917;28;20761;-54
2023/04/14 01:59:10;;;;;;;9.50;2.22;;;6.10;99.90;;;;;;5069604;28;20433;-54
2023/04/14 02:01:38;;;;;;;6.28;1.92;;;5.90;1.00;;;;;;5069202;28;20391;-55
2023/04/14 02:04:05;;;;;;;10.68;2.10;;;5.70;99.90;;;;;;5069786;28;20380;-54
2023/04/14 02:06:33;;;;;;;9.30;2.80;;;5.60;1.00;;;;;;5069072;28;20383;-54
2023/04/14 02:09:01;;;;;;;8.33;2.03;;;5.80;1.00;;;;;;5069643;28;20384;-54
2023/04/14 02:11:28;;;;;;;9.50;2.13;;;7.00;1.00;;;;;;5069076;28;20414;-54
2023/04/14 02:13:55;;;;;;;8.00;2.63;;;5.90;1.00;;;;;;5069244;28;20797;-54
2023/04/14 02:16:23;;;;;;;7.45;2.10;;;5.90;1.00;;;;;;5069171;28;20453;-54
2023/04/14 02:18:49;;;;;;;12.95;3.00;;;5.80;99.90;;;;;;5069935;28;20467;-54
2023/04/14 02:21:17;;;;;;;8.60;3.20;;;7.10;1.00;;;;;;5068768;28;20693;-54
2023/04/14 02:23:43;;;;;;;9.88;4.32;;;7.00;99.90;;;;;;5069855;28;20386;-54
2023/04/14 02:26:14;;;;;;;7.53;3.60;;;5.50;99.90;;;;;;5073915;28;20733;-54
2023/04/14 02:29:11;;;;;;;8.65;3.80;;;5.50;99.90;;;;;;5073755;28;20490;-54
2023/04/14 02:31:42;;;;;;;11.45;4.55;;;5.40;99.90;;;;;;5061741;28;20403;-54
2023/04/14 02:34:10;;;;;;;9.65;3.72;;;5.40;99.90;;;;;;5073473;28;20506;-54
2023/04/14 02:36:44;;;;;;;12.05;3.85;;;5.60;99.90;;;;;;5072719;28;20902;-54
2023/04/14 02:39:18;;;;;;;8.50;3.35;;;6.10;99.90;;;;;;5073507;28;20879;-54
2023/04/14 02:41:45;;;;;;;8.57;3.53;;;5.30;99.90;;;;;;5073697;28;20725;-54
2023/04/14 02:44:25;;;;;;;9.13;3.67;;;5.30;1.00;;;;;;5074062;28;20470;-54
2023/04/14 02:47:08;;;;;;;7.80;3.70;;;5.30;1.00;;;;;;5073396;28;20386;-54
2023/04/14 02:49:36;;;;;;;8.52;3.22;;;5.30;1.00;;;;;;5072702;28;20849;-54
2023/04/14 02:52:05;;;;;;;7.88;3.65;;;5.40;1.00;;;;;;5072954;28;20402;-54
2023/04/14 02:54:36;;;;;;;9.27;3.92;;;5.40;1.00;;;;;;5072530;28;20439;-54
2023/04/14 02:57:03;;;;;;;11.00;3.95;;;6.30;1.00;;;;;;5073322;28;20414;-54
2023/04/14 02:59:30;;;;;;;6.63;2.70;;;5.40;1.00;;;;;;5072028;28;20872;-54
2023/04/14 03:02:00;;;;;;;7.75;3.60;;;5.40;1.00;;;;;;5072842;28;20399;-54
2023/04/14 03:04:30;;;;;;;7.55;3.15;;;5.40;1.00;;;;;;5072301;28;20466;-54
2023/04/14 03:06:57;;;;;;;9.43;3.70;;;5.40;99.90;;;;;;5073015;28;20371;-54
2023/04/14 03:09:24;;;;;;;8.02;3.42;;;5.40;99.90;;;;;;5072112;28;20487;-54
2023/04/14 03:11:51;;;;;;;10.53;4.07;;;5.30;99.90;;;;;;5073022;28;20467;-54
2023/04/14 03:14:18;;;;;;;7.68;3.30;;;5.10;99.90;;;;;;5072148;28;20407;-54
2023/04/14 03:16:44;;;;;;;9.48;4.30;;;5.00;1.00;;;;;;5072663;28;20408;-54
2023/04/14 03:19:12;;;;;;;8.02;3.55;;;5.00;1.00;;;;;;5072439;28;20734;-54
2023/04/14 03:21:39;;;;;;;10.18;3.40;;;5.10;1.00;;;;;;5072691;28;20379;-54
2023/04/14 03:24:05;;;;;;;8.10;2.92;;;6.40;1.00;;;;;;5072496;28;20384;-54
2023/04/14 03:26:33;;;;;;;7.93;3.28;;;5.10;1.00;;;;;;5072408;28;20771;-54
2023/04/14 03:29:01;;;;;;;9.55;3.10;;;5.00;1.00;;;;;;5072068;28;20408;-53
2023/04/14 03:31:32;;;;;;;9.88;3.95;;;5.00;99.90;;;;;;5071888;28;20387;-54
2023/04/14 03:34:01;;;;;;;9.80;3.20;;;6.30;99.90;;;;;;5072190;28;20404;-53
2023/04/14 03:36:29;;;;;;;8.45;2.83;;;6.30;99.90;;;;;;5071239;28;20466;-54
2023/04/14 03:38:58;;;;;;;12.95;3.05;;;4.80;99.90;;;;;;5072066;28;20892;-53
2023/04/14 03:41:25;;;;;;;11.48;2.90;;;4.70;99.90;;;;;;5071693;28;20749;-54
2023/04/14 03:43:56;;;;;;;9.20;2.20;;;5.50;99.90;;;;;;5072494;28;20380;-54
2023/04/14 03:46:27;;;;;;;8.20;2.60;;;4.70;99.90;;;;;;5071474;28;20376;-53
2023/04/14 03:48:54;;;;;;;8.40;2.60;;;4.70;99.90;;;;;;5072249;28;20411;-54
2023/04/14 03:51:25;;;;;;;8.20;2.67;;;4.60;99.90;;;;;;5071689;28;20874;-55
2023/04/14 03:53:53;;;;;;;7.95;2.83;;;5.30;99.90;;;;;;5072635;28;20392;-53
2023/04/14 03:56:19;;;;;;;7.72;2.50;;;4.70;99.90;;;;;;5071724;28;20384;-54
2023/04/14 03:58:46;;;;;;;8.15;2.30;;;5.70;99.90;;;;;;5072049;28;20400;-54
2023/04/14 04:01:13;;;;;;;9.23;2.27;;;5.70;99.90;;;;;;5072384;28;20465;-54
2023/04/14 04:03:41;;;;;;;7.10;2.50;;;4.60;99.90;;;;;;5071394;28;20387;-54
2023/04/14 04:06:07;;;;;;;9.88;3.20;;;4.50;99.90;;;;;;5071975;28;20383;-54
2023/04/14 04:08:34;;;;;;;8.45;2.20;;;4.50;99.90;;;;;;5071188;28;21073;-54
2023/04/14 04:11:04;;;;;;;10.63;3.13;;;5.00;99.90;;;;;;5071828;28;20379;-54
2023/04/14 04:13:32;;;;;;;7.80;2.58;;;5.90;99.90;;;;;;5071419;28;20411;-54
2023/04/14 04:15:58;;;;;;;8.50;3.03;;;4.40;99.90;;;;;;5071866;28;20464;-53
2023/04/14 04:18:26;;;;;;;8.17;2.40;;;4.30;99.90;;;;;;5070749;28;20408;-54
2023/04/14 04:20:52;;;;;;;8.48;2.47;;;4.30;99.90;;;;;;5071688;28;20722;-54
2023/04/14 04:23:19;;;;;;;8.20;2.70;;;4.20;99.90;;;;;;5070745;28;20699;-54
2023/04/14 04:25:45;;;;;;;8.43;3.00;;;4.10;99.90;;;;;;5071540;28;20380;-53
2023/04/14 04:28:11;;;;;;;8.00;2.40;;;4.10;99.90;;;;;;5071125;28;20409;-54
2023/04/14 04:30:39;;;;;;;7.70;2.90;;;4.00;99.90;;;;;;5069856;28;20410;-53
2023/04/14 04:33:06;;;;;;;7.85;3.10;;;5.90;99.90;;;;;;5071318;28;20438;-53
2023/04/14 04:35:33;;;;;;;9.90;2.40;;;5.10;99.90;;;;;;5070344;28;20866;-53
2023/04/14 04:38:02;;;;;;;7.75;2.20;;;4.10;99.90;;;;;;5071126;28;20391;-54
2023/04/14 04:40:35;;;;;;;7.27;2.50;;;4.20;99.90;;;;;;5070724;28;20380;-53
2023/04/14 04:43:00;;;;;;;7.13;2.40;;;4.20;99.90;;;;;;5071604;28;20384;-53
2023/04/14 04:45:54;;;;;;;8.77;2.72;;;4.10;1.00;;;;;;5070244;28;20379;-53
2023/04/14 04:48:20;;;;;;;8.15;2.65;;;4.20;1.00;;;;;;5070041;28;20388;-54
2023/04/14 04:50:46;;;;;;;8.35;2.70;;;5.80;1.00;;;;;;5071045;28;20380;-54
2023/04/14 04:53:11;;;;;;;9.73;2.63;;;4.10;1.00;;;;;;5071337;28;20460;-53
2023/04/14 04:55:37;;;;;;;8.43;2.30;;;5.30;1.00;;;;;;5070384;28;20788;-53
2023/04/14 04:58:02;;;;;;;8.37;2.47;;;4.20;1.00;;;;;;5071110;28;20414;-53
2023/04/14 05:00:28;;;;;;;9.10;2.50;;;4.20;1.00;;;;;;5070106;28;20857;-53
2023/04/14 05:02:54;;;;;;;9.00;3.00;;;4.20;1.00;;;;;;5070594;28;20384;-54
2023/04/14 05:05:20;;;;;;;6.00;2.20;;;4.40;1.00;;;;;;5070144;28;20424;-54
2023/04/14 05:07:45;;;;;;;9.48;2.97;;;4.40;1.00;;;;;;5070605;28;20471;-54
2023/04/14 05:10:11;;;;;;;12.37;2.43;;;6.00;1.00;;;;;;5070668;28;20853;-54
2023/04/14 05:12:36;;;;;;;11.60;3.20;;;4.60;1.00;;;;;;5069809;28;20387;-54
2023/04/14 05:15:02;;;;;;;10.03;2.50;;;4.70;99.90;;;;;;5070492;28;20380;-54
2023/04/14 05:17:28;;;;;;;12.05;2.95;;;4.80;99.90;;;;;;5069952;28;20382;-54
2023/04/14 05:19:54;;;;;;;7.22;2.40;;;6.50;99.90;;;;;;5070713;28;20384;-54
2023/04/14 05:22:19;;;;;;;10.20;3.20;;;5.10;99.90;;;;;;5069824;28;20384;-54
2023/04/14 05:24:51;;;;;;;10.77;2.23;;;5.30;99.90;;;;;;5070580;28;20884;-54
2023/04/14 05:27:16;;;;;;;8.00;2.60;;;5.60;99.90;;;;;;5069612;28;20376;-54
2023/04/14 05:29:42;;;;;;;11.57;3.00;;;5.80;99.90;;;;;;5069593;28;20942;-54
2023/04/14 05:32:08;;;;;;;7.93;2.03;;;6.90;1.00;;;;;;5070489;28;20378;-54
2023/04/14 05:34:35;;;;;;;8.95;2.50;;;6.20;1.00;;;;;;5068799;28;20522;-54
2023/04/14 05:37:01;;;;;;;10.70;2.10;;;6.50;23.00;;;;;;5069682;28;20455;-54
2023/04/14 05:39:26;;;;;;;9.70;2.50;;;7.50;99.90;;;;;;5069737;28;20422;-54
2023/04/14 05:41:52;;;;;;;9.77;2.20;;;7.60;28.40;;;;;;5069820;28;20388;-54
2023/04/14 05:44:18;;;;;;;10.43;2.30;;;8.50;1.00;;;;;;5069132;28;20886;-55
2023/04/14 05:46:43;;;;;;;11.02;2.40;;;8.60;1.00;;;;;;5069951;28;20458;-54
2023/04/14 05:49:10;;;;;;;9.40;1.83;;;8.90;99.90;;;;;;5070056;28;20776;-54
2023/04/14 05:51:36;;;;;;;7.10;1.70;;;9.30;92.00;;;;;;5069363;28;20425;-54
2023/04/14 05:54:02;;;;;;;9.07;2.00;;;9.50;1.00;;;;;;5070080;28;20403;-54
2023/04/14 05:56:28;;;;;;;7.85;1.80;;;9.70;1.00;;;;;;5069356;28;20387;-55
2023/04/14 05:58:54;;;;;;;7.10;1.90;;;10.40;1.00;;;;;;5069282;28;20725;-55
2023/04/14 06:01:20;;;;;;;6.50;1.75;;;10.90;1.00;;;;;;5068957;28;20388;-55
2023/04/14 06:03:45;;;;;;;7.70;2.10;;;12.10;1.00;;;;;;5066972;28;20411;-55
2023/04/14 06:06:11;;;;;;;6.77;1.60;;;13.10;1.00;;;;;;5064953;28;20395;-52
2023/04/14 06:08:36;;;;;;;9.43;1.80;;;14.10;99.90;;;;;;5069050;28;20386;-53
2023/04/14 06:11:02;;;;;;;9.07;2.30;;;14.90;99.90;;;;;;5069505;28;20734;-52
2023/04/14 06:13:28;;;;;;;9.45;2.30;;;15.10;99.90;;;;;;5067468;28;20411;-52
2023/04/14 06:15:55;;;;;;;8.90;2.13;;;14.90;99.90;;;;;;5069631;28;20768;-52
2023/04/14 06:18:21;;;;;;;7.18;2.20;;;14.70;99.90;;;;;;5068854;28;20390;-55
2023/04/14 06:20:47;;;;;;;8.95;2.08;;;13.20;99.90;;;;;;5069331;28;20394;-54
2023/04/14 06:23:13;;;;;;;8.15;2.03;;;11.80;99.90;;;;;;5069271;28;20398;-55
2023/04/14 06:25:39;;;;;;;11.93;2.30;;;11.50;99.90;;;;;;5068853;28;20384;-55
2023/04/14 06:28:06;;;;;;;6.15;1.52;;;11.70;99.90;;;;;;5051397;28;20762;-55
2023/04/14 06:30:32;;;;;;;7.43;2.20;;;12.60;99.90;;;;;;5068817;28;20395;-55
2023/04/14 06:33:00;;;;;;;9.75;1.42;;;13.00;99.90;;;;;;5069313;28;20407;-55
2023/04/14 06:35:26;;;;;;;9.00;1.60;;;12.90;99.90;;;;;;5068390;28;20386;-55
2023/04/14 06:37:51;;;;;;;6.70;1.87;;;13.50;99.90;;;;;;5069424;28;20795;-53
2023/04/14 06:40:17;;;;;;;8.35;1.70;;;14.30;99.90;;;;;;5068871;28;20372;-54
2023/04/14 06:42:42;;;;;;;6.50;1.40;;;15.60;99.90;;;;;;5070070;28;20451;-55
2023/04/14 06:45:08;;;;;;;9.43;1.80;;;17.00;99.90;;;;;;5069714;28;20892;-56
2023/04/14 06:47:34;;;;;;;7.00;1.40;;;17.50;99.90;;;;;;5069503;28;20463;-56
2023/04/14 06:50:02;;;;;;;9.35;4.18;;;17.80;99.90;;;;;;5069566;28;20455;-55
2023/04/14 06:52:27;;;;;;;6.80;1.88;;;18.00;99.90;;;;;;5067988;28;20718;-56
2023/04/14 06:54:53;;;;;;;6.90;2.20;;;17.70;99.90;;;;;;5069580;28;20469;-56
2023/04/14 06:57:18;;;;;;;6.60;1.60;;;18.00;99.90;;;;;;5068543;28;20393;-56
2023/04/14 06:59:45;;;;;;;11.37;10.27;;;18.50;99.90;;;;;;5069201;28;20380;-56
2023/04/14 07:02:12;;;;;;;10.90;9.48;;;18.80;99.90;;;;;;5069241;28;20516;-56
2023/04/14 07:04:37;;;;;;;11.77;8.13;;;17.90;99.90;;;;;;5068753;28;20388;-58
2023/04/14 07:07:03;;;;;;;8.60;6.55;;;17.90;99.90;;;;;;5068806;28;20364;-57
2023/04/14 07:09:29;;;;;;;10.30;7.20;;;18.00;99.90;;;;;;5068779;28;21007;-58
2023/04/14 07:11:56;;;;;;;8.82;7.93;;;18.70;99.90;;;;;;5072331;28;20425;-56
2023/04/14 07:14:22;;;;;;;10.68;7.68;;;19.20;99.90;;;;;;5072181;28;20411;-56
2023/04/14 07:16:49;;;;;;;11.77;7.53;;;20.20;99.90;;;;;;5072986;28;20410;-57
2023/04/14 07:19:15;;;;;;;12.60;9.00;;;20.40;99.90;;;;;;5072570;28;20387;-56
2023/04/14 07:21:41;;;;;;;11.00;10.13;;;19.80;99.90;;;;;;5071788;28;20875;-56
2023/04/14 07:24:06;;;;;;;9.13;8.32;;;19.20;99.90;;;;;;5072696;28;20372;-56
2023/04/14 07:26:32;;;;;;;9.20;8.30;;;18.90;99.90;;;;;;5072036;28;20948;-56
2023/04/14 07:28:58;;;;;;;11.00;9.80;;;19.20;99.90;;;;;;5072474;28;20403;-55
2023/04/14 07:31:23;;;;;;;12.80;11.60;;;19.20;99.90;;;;;;5071592;28;20391;-56
2023/04/14 07:33:49;;;;;;;11.97;8.30;;;19.40;99.90;;;;;;5072220;28;20458;-58
2023/04/14 07:36:14;;;;;;;9.17;7.10;;;18.00;99.90;;;;;;5072527;28;20415;-56
2023/04/14 07:38:40;;;;;;;7.90;6.70;;;17.70;99.90;;;;;;5071591;28;20494;-55
2023/04/14 07:41:07;;;;;;;10.70;6.90;;;17.40;99.90;;;;;;5072247;28;20441;-56
2023/04/14 07:43:35;;;;;;;8.75;6.63;;;17.00;99.90;;;;;;5071581;28;20411;-56
2023/04/14 07:46:05;;;;;;;7.60;6.03;;;18.10;99.90;;;;;;5072656;28;20426;-56
2023/04/14 07:48:33;;;;;;;7.78;5.90;;;17.60;99.90;;;;;;5071404;28;20775;-56
2023/04/14 07:50:59;;;;;;;7.20;6.00;;;18.30;99.90;;;;;;5072262;28;20496;-56
2023/04/14 07:53:25;;;;;;;8.50;6.63;;;17.90;99.90;;;;;;5071110;28;20799;-56
2023/04/14 07:55:50;;;;;;;8.55;6.78;;;17.80;99.90;;;;;;5072161;28;20380;-55
2023/04/14 07:58:16;;;;;;;10.07;6.67;;;17.30;99.90;;;;;;5071777;28;20445;-54
2023/04/14 08:00:42;;;;;;;13.43;6.70;;;16.80;99.90;;;;;;5071552;28;20433;-54
2023/04/14 08:03:08;;;;;;;7.40;6.43;;;17.10;99.90;;;;;;5072034;28;20392;-56
2023/04/14 08:05:34;;;;;;;8.00;5.72;;;17.30;99.90;;;;;;5069809;28;20441;-56
2023/04/14 08:07:59;;;;;;;7.53;5.50;;;17.00;99.90;;;;;;5072063;28;20846;-56
2023/04/14 08:10:25;;;;;;;9.50;5.90;;;17.50;99.90;;;;;;5070929;28;20384;-56
2023/04/14 08:12:51;;;;;;;10.23;5.93;;;18.30;99.90;;;;;;5071778;28;20461;-54
2023/04/14 08:15:17;;;;;;;9.70;6.03;;;19.50;99.90;;;;;;5071933;28;20482;-54
2023/04/14 08:17:43;;;;;;;9.02;6.10;;;20.40;99.90;;;;;;5071230;28;20462;-54
2023/04/14 08:20:09;;;;;;;9.98;6.82;;;20.90;99.90;;;;;;5071908;28;20783;-54
2023/04/14 08:22:35;;;;;;;9.10;8.20;;;21.00;99.90;;;;;;5069491;28;20383;-55
2023/04/14 08:25:01;;;;;;;9.43;8.53;;;21.30;99.90;;;;;;5071606;28;20380;-55
2023/04/14 08:27:27;;;;;;;9.85;8.85;;;21.50;99.90;;;;;;5070793;28;20437;-55
2023/04/14 08:29:53;;;;;;;10.40;9.30;;;21.40;99.90;;;;;;5071856;28;20426;-54
2023/04/14 08:32:18;;;;;;;9.60;8.70;;;21.30;99.90;;;;;;5071065;28;20474;-54
2023/04/14 08:34:45;;;;;;;12.30;11.30;;;21.00;99.90;;;;;;5070880;28;20412;-54
2023/04/14 08:37:10;;;;;;;10.70;9.10;;;21.80;99.90;;;;;;5071433;28;20391;-54
2023/04/14 08:39:36;;;;;;;11.00;8.60;;;21.80;99.90;;;;;;5070084;28;20442;-55
2023/04/14 08:42:04;;;;;;;9.90;8.90;;;22.30;99.90;;;;;;5071412;28;20400;-54
2023/04/14 08:44:29;;;;;;;10.23;9.10;;;21.50;99.90;;;;;;5070572;28;20392;-55
2023/04/14 08:46:55;;;;;;;11.20;10.02;;;22.50;99.90;;;;;;5071278;28;20442;-55
2023/04/14 08:49:32;;;;;;;8.05;2.33;;;23.00;99.90;;;;;;5070927;28;20472;-55
2023/04/14 08:52:01;;;;;;;9.38;5.90;;;23.40;99.90;;;;;;5071581;28;20372;-55
2023/04/14 08:54:27;;;;;;;9.63;8.63;;;22.90;99.90;;;;;;5069943;28;20487;-55
2023/04/14 08:56:56;;;;;;;7.50;1.80;;;22.60;99.90;;;;;;5070930;28;20478;-54
2023/04/14 08:59:22;;;;;;;8.93;3.30;;;23.10;99.90;;;;;;5070440;28;20388;-55
2023/04/14 09:01:48;;;;;;;11.30;8.60;;;22.50;99.90;;;;;;5070976;28;20380;-54
2023/04/14 09:04:15;;;;;;;11.85;9.02;;;22.20;99.90;;;;;;5070983;28;20881;-55
2023/04/14 09:06:41;;;;;;;10.27;8.65;;;22.50;99.90;;;;;;5070132;28;20623;-55
2023/04/14 09:09:07;;;;;;;9.20;8.10;;;22.00;99.90;;;;;;5070458;28;20856;-54
2023/04/14 09:11:33;;;;;;;12.60;7.90;;;20.30;99.90;;;;;;5070241;28;20407;-54
2023/04/14 09:14:00;;;;;;;9.40;6.97;;;19.90;99.90;;;;;;5070837;28;20470;-54
2023/04/14 09:16:26;;;;;;;9.95;7.57;;;19.60;99.90;;;;;;5070260;28;20372;-55
2023/04/14 09:18:56;;;;;;;10.90;6.75;;;19.90;99.90;;;;;;5070477;28;20387;-54
2023/04/14 09:21:22;;;;;;;10.25;7.10;;;18.90;99.90;;;;;;5070483;28;20368;-57
2023/04/14 09:23:49;;;;;;;10.70;8.32;;;19.40;99.90;;;;;;5070148;28;20876;-54
2023/04/14 09:26:15;;;;;;;9.07;7.80;;;19.70;99.90;;;;;;5070401;28;20396;-54
2023/04/14 09:28:41;;;;;;;8.88;7.10;;;18.80;99.90;;;;;;5069319;28;20813;-54
2023/04/14 09:31:09;;;;;;;10.97;6.70;;;18.00;99.90;;;;;;5070523;28;20387;-55
2023/04/14 09:33:39;;;;;;;11.88;6.30;;;;;;;;;;5069114;28;20450;-55
2023/04/14 09:36:05;;;;;;;9.00;7.07;;;20.50;99.90;;;;;;5070423;28;20510;-55
2023/04/14 09:38:35;;;;;;;9.18;8.00;;;22.00;99.90;;;;;;5069276;28;20928;-55
2023/04/14 09:41:02;;;;;;;14.20;13.10;;;23.00;99.90;;;;;;5070244;28;20408;-56
2023/04/14 09:43:29;;;;;;;12.98;11.68;;;23.80;99.90;;;;;;5069523;28;20415;-55
2023/04/14 09:46:03;;;;;;;9.30;7.60;;;22.30;99.90;;;;;;5070110;28;20399;-55
2023/04/14 09:48:28;;;;;;;11.17;7.37;;;21.10;99.90;;;;;;5069324;28;20740;-55
2023/04/14 09:51:06;;;;;;;9.77;7.70;;;19.20;99.90;;;;;;5070280;28;20395;-55
2023/04/14 09:53:40;;;;;;;10.43;7.87;;;18.10;99.90;;;;;;5069171;28;20769;-55
2023/04/14 09:56:09;;;;;;;8.70;7.40;;;19.50;99.90;;;;;;5069831;28;20388;-55
2023/04/14 09:58:37;;;;;;;8.93;7.43;;;21.10;99.90;;;;;;5068963;28;20403;-55
2023/04/14 10:01:05;;;;;;;9.17;7.00;;;22.20;99.90;;;;;;5069950;28;20383;-55
2023/04/14 10:03:38;;;;;;;9.27;7.10;;;22.10;99.90;;;;;;5069099;28;20375;-56
2023/04/14 10:06:09;;;;;;;7.82;7.00;;;21.60;99.90;;;;;;5070243;28;20401;-55
2023/04/14 10:08:40;;;;;;;8.20;7.35;;;21.60;99.90;;;;;;5068761;28;20822;-55
2023/04/14 10:11:25;;;;;;;10.45;8.45;;;21.80;99.90;;;;;;5069245;28;20387;-55
2023/04/14 10:13:53;;;;;;;8.77;7.90;;;22.40;99.90;;;;;;5069187;28;20408;-55
2023/04/14 10:16:19;;;;;;;10.07;7.80;;;21.70;99.90;;;;;;5069441;28;20379;-56
2023/04/14 10:18:45;;;;;;;9.87;7.70;;;21.60;99.90;;;;;;5070391;28;20390;-55
2023/04/14 10:21:14;;;;;;;8.45;7.40;;;22.20;99.90;;;;;;5069639;28;20403;-55
2023/04/14 10:23:41;;;;;;;8.73;7.83;;;22.60;99.90;;;;;;5068735;28;20421;-55
2023/04/14 10:26:09;;;;;;;8.45;7.10;;;22.10;99.90;;;;;;5069402;28;20470;-55
2023/04/14 10:28:37;;;;;;;10.38;6.47;;;21.80;99.90;;;;;;5068738;28;20484;-55
2023/04/14 10:31:07;;;;;;;11.57;6.50;;;21.20;99.90;;;;;;5068997;28;20790;-55
2023/04/14 10:33:36;;;;;;;8.10;6.72;;;20.50;99.90;;;;;;5050779;28;20810;-55
2023/04/14 10:36:02;;;;;;;7.47;6.55;;;20.90;99.90;;;;;;5069559;28;20437;-55
2023/04/14 10:38:45;;;;;;;8.65;7.40;;;20.30;99.90;;;;;;5068893;28;20388;-55
2023/04/14 10:41:11;;;;;;;8.15;6.82;;;19.50;99.90;;;;;;5069479;28;20418;-55
2023/04/14 10:43:38;;;;;;;12.23;7.13;;;19.40;99.90;;;;;;5068664;28;20426;-54
2023/04/14 10:46:08;;;;;;;10.60;7.00;;;19.50;99.90;;;;;;5071816;28;20371;-54
2023/04/14 10:48:37;;;;;;;9.65;6.50;;;19.10;99.90;;;;;;5073028;28;20455;-54
2023/04/14 10:51:13;;;;;;;8.00;5.78;;;18.30;99.90;;;;;;5073371;28;20387;-55
2023/04/14 10:53:48;;;;;;;10.07;6.85;;;18.00;99.90;;;;;;5073181;28;20423;-55
2023/04/14 10:56:15;;;;;;;10.43;6.40;;;18.50;99.90;;;;;;5073542;28;20421;-55
2023/04/14 10:58:57;;;;;;;11.43;7.10;;;18.30;99.90;;;;;;5072368;28;20959;-55
2023/04/14 11:01:34;;;;;;;8.00;6.90;;;18.70;99.90;;;;;;5072982;28;20379;-55
2023/04/14 11:04:17;;;;;;;10.15;7.20;;;18.90;99.90;;;;;;5073222;28;20380;-55
2023/04/14 11:06:46;;;;;;;6.93;6.10;;;18.80;99.90;;;;;;5072248;28;21318;-55
2023/04/14 11:09:36;;;;;;;9.07;6.05;;;18.60;99.90;;;;;;5072790;28;20398;-54
2023/04/14 11:12:22;;;;;;;7.72;5.63;;;18.70;99.90;;;;;;5055238;28;20384;-55
2023/04/14 11:14:48;;;;;;;9.43;5.63;;;18.70;99.90;;;;;;5072572;28;20472;-55
2023/04/14 11:17:21;;;;;;;8.82;5.55;;;18.90;99.90;;;;;;5072909;28;20376;-55
2023/04/14 11:19:47;;;;;;;7.28;5.50;;;19.00;99.90;;;;;;5072300;28;20408;-55
2023/04/14 11:22:13;;;;;;;9.15;5.80;;;17.90;99.90;;;;;;5072616;28;20467;-55
2023/04/14 11:24:39;;;;;;;8.40;5.63;;;17.80;99.90;;;;;;5071911;28;20454;-55
2023/04/14 11:27:10;;;;;;;11.05;6.00;;;18.30;99.90;;;;;;5072682;28;20392;-55
2023/04/14 11:29:36;;;;;;;7.75;5.82;;;18.10;99.90;;;;;;5071282;28;20411;-55
2023/04/14 11:32:04;;;;;;;7.90;5.38;;;17.80;99.90;;;;;;5072795;28;20388;-55
2023/04/14 11:34:29;;;;;;;8.63;5.38;;;17.70;99.90;;;;;;5071269;28;20937;-55
2023/04/14 11:36:55;;;;;;;8.45;5.10;;;17.80;99.90;;;;;;5072398;28;20462;-55
2023/04/14 11:39:22;;;;;;;8.13;5.13;;;18.10;99.90;;;;;;5072223;28;20426;-55
2023/04/14 11:41:49;;;;;;;7.65;5.63;;;17.10;99.90;;;;;;5072348;28;20375;-55
2023/04/14 11:44:19;;;;;;;8.18;5.47;;;17.00;99.90;;;;;;5072466;28;20529;-54
2023/04/14 11:46:45;;;;;;;9.60;5.90;;;17.20;99.90;;;;;;5071775;28;20386;-54
2023/04/14 11:49:10;;;;;;;9.30;6.30;;;17.20;99.90;;;;;;5071888;28;20384;-54
2023/04/14 11:51:37;;;;;;;6.90;5.90;;;17.50;99.90;;;;;;5071462;28;20875;-55
2023/04/14 11:54:03;;;;;;;7.33;5.60;;;17.60;99.90;;;;;;5072712;28;20780;-55
2023/04/14 11:56:30;;;;;;;6.80;6.10;;;17.50;99.90;;;;;;5071306;28;20852;-55
2023/04/14 11:59:03;;;;;;;8.70;6.00;;;17.40;99.90;;;;;;5072092;28;20403;-55
2023/04/14 12:01:29;;;;;;;8.57;6.13;;;17.30;99.90;;;;;;5071403;28;20378;-55
2023/04/14 12:03:56;;;;;;;9.50;6.00;;;17.40;99.90;;;;;;5072012;28;20384;-54
2023/04/14 12:06:22;;;;;;;15.20;6.20;;;17.50;99.90;;;;;;5071650;28;20386;-55
2023/04/14 12:08:55;;;;;;;12.07;5.97;;;17.50;99.90;;;;;;5071723;28;20383;-55
2023/04/14 12:11:21;;;;;;;9.40;6.00;;;17.50;99.90;;;;;;5071711;28;20829;-55
2023/04/14 12:13:48;;;;;;;6.50;5.50;;;17.90;99.90;;;;;;5071526;28;20410;-55
2023/04/14 12:16:15;;;;;;;9.75;5.90;;;17.70;99.90;;;;;;5072500;28;20451;-55
2023/04/14 12:18:43;;;;;;;9.40;5.90;;;17.80;99.90;;;;;;5071146;28;20380;-55
2023/04/14 12:21:09;;;;;;;7.43;5.75;;;17.90;99.90;;;;;;5071680;28;20392;-55
2023/04/14 12:23:36;;;;;;;11.68;9.70;;;17.90;99.90;;;;;;5070871;28;20474;-55
2023/04/14 12:26:02;;;;;;;8.20;5.80;;;17.90;99.90;;;;;;5071926;28;20376;-55
2023/04/14 12:28:28;;;;;;;7.60;6.03;;;18.10;99.90;;;;;;5070863;28;20502;-55
2023/04/14 12:31:02;;;;;;;7.55;5.68;;;18.00;99.90;;;;;;5071467;28;20387;-54
2023/04/14 12:33:29;;;;;;;7.22;5.50;;;17.80;99.90;;;;;;5070612;28;20503;-55
2023/04/14 12:36:11;;;;;;;8.05;6.20;;;17.40;99.90;;;;;;5071477;28;20422;-54
2023/04/14 12:38:37;;;;;;;7.82;5.78;;;17.50;99.90;;;;;;5070681;28;20386;-55
2023/04/14 12:41:03;;;;;;;9.00;5.97;;;17.80;99.90;;;;;;5071254;28;20384;-55
2023/04/14 12:43:33;;;;;;;8.60;5.82;;;17.70;99.90;;;;;;5070143;28;20388;-55
2023/04/14 12:45:59;;;;;;;6.50;5.80;;;17.60;99.90;;;;;;5071004;28;20392;-54
2023/04/14 12:48:57;;;;;;;8.50;5.70;;;17.70;99.90;;;;;;5070138;28;20383;-55
2023/04/14 12:51:23;;;;;;;7.20;6.10;;;17.30;99.90;;;;;;5025679;28;20753;-55
2023/04/14 12:53:49;;;;;;;7.00;6.30;;;17.50;99.90;;;;;;5070667;28;20407;-55
2023/04/14 12:56:20;;;;;;;7.60;5.90;;;17.80;99.90;;;;;;5070990;28;20384;-55